createdAt,value
2022-10-24T00:01:30.612Z,72.39
2022-10-24T00:03:57.999Z,72.13
2022-10-24T00:06:24.797Z,72.38
2022-10-24T00:08:52.163Z,72.69
2022-10-24T00:11:21.004Z,72.86
2022-10-24T00:13:47.924Z,72.87
2022-10-24T00:16:14.786Z,73.23
2022-10-24T00:18:41.970Z,73.11
2022-10-24T00:21:09.096Z,73.22
2022-10-24T00:23:35.976Z,73.43
2022-10-24T00:26:04.546Z,73.54
2022-10-24T00:28:33.011Z,73.77
2022-10-24T00:31:00.172Z,73.75
2022-10-24T00:33:27.088Z,74.25
2022-10-24T00:35:54.220Z,74.55
2022-10-24T00:38:20.882Z,74.37
2022-10-24T00:40:47.947Z,74.60
2022-10-24T00:43:19.166Z,74.63
2022-10-24T00:45:48.412Z,74.76
2022-10-24T00:48:15.192Z,74.51
2022-10-24T00:50:42.406Z,74.24
2022-10-24T00:53:09.534Z,74.40
2022-10-24T00:55:37.205Z,74.55
2022-10-24T00:58:05.387Z,74.68
2022-10-24T01:00:34.241Z,75.24
2022-10-24T01:03:01.753Z,75.38
2022-10-24T01:05:32.282Z,75.87
2022-10-24T01:08:08.376Z,76.00
2022-10-24T01:10:41.039Z,75.88
2022-10-24T01:13:10.866Z,76.00
2022-10-24T01:15:37.556Z,76.04
2022-10-24T01:18:11.717Z,75.79
2022-10-24T01:20:44.038Z,75.76
2022-10-24T01:23:17.098Z,75.55
2022-10-24T01:25:46.732Z,75.63
2022-10-24T01:28:13.396Z,75.71
2022-10-24T01:30:46.020Z,75.59
2022-10-24T01:33:18.954Z,75.60
2022-10-24T01:35:45.887Z,75.26
2022-10-24T01:38:12.625Z,75.42
2022-10-24T01:40:50.822Z,75.49
2022-10-24T01:43:21.183Z,75.73
2022-10-24T01:45:51.057Z,75.79
2022-10-24T01:48:20.306Z,75.90
2022-10-24T01:50:47.920Z,75.96
2022-10-24T01:53:15.176Z,75.87
2022-10-24T01:55:42.662Z,75.95
2022-10-24T01:58:09.531Z,76.26
2022-10-24T02:00:36.286Z,76.07
2022-10-24T02:03:06.175Z,75.80
2022-10-24T02:05:45.164Z,75.70
2022-10-24T02:08:14.608Z,75.85
2022-10-24T02:10:45.726Z,76.14
2022-10-24T02:13:17.140Z,76.04
2022-10-24T02:15:47.368Z,76.10
2022-10-24T02:18:14.169Z,75.87
2022-10-24T02:21:02.401Z,75.97
2022-10-24T02:23:43.548Z,76.01
2022-10-24T02:26:13.554Z,76.02
2022-10-24T02:28:43.306Z,76.08
2022-10-24T02:31:17.377Z,76.37
2022-10-24T02:33:45.039Z,76.58
2022-10-24T02:36:14.926Z,76.56
2022-10-24T02:38:44.478Z,76.77
2022-10-24T02:41:24.130Z,76.78
2022-10-24T02:43:52.237Z,76.80
2022-10-24T02:46:20.459Z,77.13
2022-10-24T02:48:53.340Z,77.11
2022-10-24T02:51:22.123Z,77.23
2022-10-24T02:53:49.986Z,77.51
2022-10-24T02:56:17.020Z,77.50
2022-10-24T02:58:43.709Z,77.55
2022-10-24T03:01:10.881Z,77.57
2022-10-24T03:03:37.733Z,77.79
2022-10-24T03:06:05.067Z,77.47
2022-10-24T03:08:31.782Z,77.80
2022-10-24T03:10:58.621Z,77.64
2022-10-24T03:13:25.451Z,77.86
2022-10-24T03:15:52.243Z,77.77
2022-10-24T03:18:19.016Z,77.91
2022-10-24T03:20:46.509Z,77.95
2022-10-24T03:23:13.349Z,78.03
2022-10-24T03:25:40.429Z,78.21
2022-10-24T03:28:07.114Z,78.28
2022-10-24T03:30:33.932Z,78.33
2022-10-24T03:33:00.663Z,78.27
2022-10-24T03:35:27.456Z,78.26
2022-10-24T03:37:54.166Z,78.34
2022-10-24T03:40:21.202Z,78.39
2022-10-24T03:42:48.233Z,78.60
2022-10-24T03:45:15.740Z,78.51
2022-10-24T03:47:42.779Z,78.17
2022-10-24T03:50:09.556Z,78.48
2022-10-24T03:52:36.442Z,78.48
2022-10-24T03:55:03.516Z,78.66
2022-10-24T03:57:30.406Z,78.69
2022-10-24T03:59:57.123Z,79.06
2022-10-24T04:02:24.046Z,79.28
2022-10-24T04:04:50.741Z,79.37
2022-10-24T04:07:17.428Z,79.39
2022-10-24T04:09:44.851Z,79.36
2022-10-24T04:12:11.517Z,79.42
2022-10-24T04:14:38.549Z,79.50
2022-10-24T04:17:05.754Z,79.35
2022-10-24T04:19:32.866Z,79.27
2022-10-24T04:22:00.151Z,79.28
2022-10-24T04:24:27.071Z,79.35
2022-10-24T04:26:53.970Z,79.33
2022-10-24T04:29:20.911Z,79.54
2022-10-24T04:31:47.667Z,79.58
2022-10-24T04:34:14.575Z,79.73
2022-10-24T04:36:41.375Z,79.69
2022-10-24T04:39:08.103Z,79.42
2022-10-24T04:41:34.902Z,79.24
2022-10-24T04:44:01.793Z,79.56
2022-10-24T04:46:28.521Z,79.76
2022-10-24T04:48:55.510Z,79.94
2022-10-24T04:51:22.693Z,80.12
2022-10-24T04:53:50.307Z,80.22
2022-10-24T04:56:17.334Z,80.09
2022-10-24T04:58:44.157Z,80.22
2022-10-24T05:01:11.331Z,80.40
2022-10-24T05:03:38.082Z,80.61
2022-10-24T05:06:05.034Z,80.71
2022-10-24T05:08:31.707Z,80.58
2022-10-24T05:10:58.455Z,80.58
2022-10-24T05:13:26.702Z,80.50
2022-10-24T05:15:53.623Z,80.61
2022-10-24T05:18:20.372Z,80.49
2022-10-24T05:20:47.056Z,80.71
2022-10-24T05:23:13.925Z,80.51
2022-10-24T05:25:40.732Z,80.44
2022-10-24T05:28:07.424Z,80.19
2022-10-24T05:30:34.384Z,80.09
2022-10-24T05:33:01.072Z,79.97
2022-10-24T05:35:28.135Z,79.81
2022-10-24T05:37:54.870Z,79.82
2022-10-24T05:40:21.538Z,79.99
2022-10-24T05:42:48.855Z,79.77
2022-10-24T05:45:15.967Z,79.66
2022-10-24T05:47:42.810Z,79.41
2022-10-24T05:50:10.439Z,79.28
2022-10-24T05:52:37.253Z,79.06
2022-10-24T05:55:08.636Z,79.13
2022-10-24T05:57:37.107Z,79.50
2022-10-24T06:00:05.743Z,79.43
2022-10-24T06:02:39.029Z,79.35
2022-10-24T06:05:06.478Z,79.41
2022-10-24T06:07:33.129Z,79.26
2022-10-24T06:09:59.824Z,79.05
2022-10-24T06:12:27.034Z,79.14
2022-10-24T06:14:57.241Z,78.79
2022-10-24T06:17:23.972Z,78.63
2022-10-24T06:19:51.214Z,78.54
2022-10-24T06:22:18.708Z,78.60
2022-10-24T06:24:45.546Z,78.50
2022-10-24T06:27:12.485Z,78.06
2022-10-24T06:29:39.450Z,77.74
2022-10-24T06:32:06.164Z,77.31
2022-10-24T06:34:33.175Z,77.22
2022-10-24T06:36:59.920Z,77.11
2022-10-24T06:39:26.742Z,76.93
2022-10-24T06:41:53.597Z,77.07
2022-10-24T06:44:20.594Z,76.68
2022-10-24T06:46:47.315Z,76.31
2022-10-24T06:49:15.157Z,76.51
2022-10-24T06:51:41.923Z,76.45
2022-10-24T06:54:08.966Z,76.35
2022-10-24T06:56:35.711Z,76.16
2022-10-24T06:59:02.536Z,76.10
2022-10-24T07:01:29.507Z,76.02
2022-10-24T07:03:56.482Z,75.50
2022-10-24T07:06:27.402Z,75.79
2022-10-24T07:08:55.101Z,75.49
2022-10-24T07:11:23.594Z,75.71
2022-10-24T07:13:50.406Z,75.68
2022-10-24T07:16:17.929Z,75.66
2022-10-24T07:18:45.083Z,75.12
2022-10-24T07:21:17.704Z,75.20
2022-10-24T07:23:44.703Z,75.06
2022-10-24T07:26:13.367Z,74.59
2022-10-24T07:28:41.045Z,74.47
2022-10-24T07:31:07.813Z,74.42
2022-10-24T07:33:36.559Z,74.11
2022-10-24T07:36:03.535Z,73.91
2022-10-24T07:38:30.283Z,73.58
2022-10-24T07:40:57.055Z,73.41
2022-10-24T07:43:23.977Z,73.21
2022-10-24T07:45:51.878Z,73.12
2022-10-24T07:48:19.685Z,72.71
2022-10-24T07:50:47.483Z,72.42
2022-10-24T07:53:14.580Z,72.37
2022-10-24T07:55:42.373Z,72.02
2022-10-24T07:58:10.109Z,71.89
2022-10-24T08:00:40.027Z,71.40
2022-10-24T08:03:09.607Z,70.88
2022-10-24T08:05:38.460Z,71.09
2022-10-24T08:08:30.593Z,70.77
2022-10-24T08:10:52.168Z,70.79
2022-10-24T08:13:18.878Z,70.65
2022-10-24T08:15:45.607Z,70.26
2022-10-24T08:18:12.695Z,70.06
2022-10-24T08:20:39.475Z,70.16
2022-10-24T08:23:06.387Z,69.70
2022-10-24T08:25:33.277Z,69.44
2022-10-24T08:28:01.817Z,69.50
2022-10-24T08:30:30.823Z,68.84
2022-10-24T08:32:57.897Z,68.45
2022-10-24T08:35:25.840Z,68.88
2022-10-24T08:37:52.619Z,68.45
2022-10-24T08:40:20.878Z,68.40
2022-10-24T08:42:48.706Z,67.95
2022-10-24T08:45:36.151Z,67.73
2022-10-24T08:48:06.930Z,67.70
2022-10-24T08:50:35.419Z,67.34
2022-10-24T08:53:04.596Z,67.10
2022-10-24T08:55:51.077Z,67.32
2022-10-24T08:58:20.126Z,66.91
2022-10-24T09:00:48.626Z,66.59
2022-10-24T09:03:17.570Z,66.14
2022-10-24T09:05:52.946Z,65.96
2022-10-24T09:08:40.938Z,66.01
2022-10-24T09:11:07.884Z,65.77
2022-10-24T09:13:37.321Z,65.38
2022-10-24T09:16:04.360Z,64.80
2022-10-24T09:18:46.463Z,64.54
2022-10-24T09:21:14.911Z,64.25
2022-10-24T09:23:42.671Z,64.38
2022-10-24T09:26:15.860Z,63.83
2022-10-24T09:28:42.843Z,63.64
2022-10-24T09:31:15.010Z,63.58
2022-10-24T09:33:42.703Z,63.32
2022-10-24T09:36:11.279Z,62.95
2022-10-24T09:38:39.282Z,62.85
2022-10-24T09:41:08.175Z,62.53
2022-10-24T09:43:39.367Z,62.90
2022-10-24T09:46:06.171Z,62.34
2022-10-24T09:48:34.099Z,62.03
2022-10-24T09:51:02.190Z,61.76
2022-10-24T09:53:31.856Z,61.56
2022-10-24T09:56:00.659Z,61.65
2022-10-24T09:58:32.561Z,61.23
2022-10-24T10:01:01.365Z,61.30
2022-10-24T10:03:28.481Z,60.84
2022-10-24T10:06:04.571Z,60.84
2022-10-24T10:08:33.183Z,60.89
2022-10-24T10:11:02.978Z,60.15
2022-10-24T10:13:30.403Z,59.44
2022-10-24T10:16:01.898Z,59.62
2022-10-24T10:18:28.796Z,59.17
2022-10-24T10:21:07.431Z,59.55
2022-10-24T10:23:41.530Z,59.37
2022-10-24T10:26:14.793Z,59.55
2022-10-24T10:28:43.771Z,59.52
2022-10-24T10:31:10.791Z,59.16
2022-10-24T10:34:01.067Z,59.06
2022-10-24T10:36:32.050Z,59.00
2022-10-24T10:39:04.719Z,58.79
2022-10-24T10:41:43.348Z,58.62
2022-10-24T10:44:16.206Z,58.50
2022-10-24T10:46:43.116Z,58.09
2022-10-24T10:49:14.030Z,58.25
2022-10-24T10:51:47.183Z,58.51
2022-10-24T10:54:16.799Z,58.13
2022-10-24T10:56:54.727Z,58.26
2022-10-24T10:59:27.099Z,57.36
2022-10-24T11:02:16.420Z,57.90
2022-10-24T11:04:46.992Z,58.04
2022-10-24T11:07:16.878Z,57.77
2022-10-24T11:09:45.262Z,57.47
2022-10-24T11:12:11.979Z,56.96
2022-10-24T11:14:41.239Z,56.83
2022-10-24T11:17:14.327Z,57.14
2022-10-24T11:19:45.866Z,57.15
2022-10-24T11:22:17.342Z,56.06
2022-10-24T11:24:46.967Z,56.11
2022-10-24T11:27:16.131Z,56.33
2022-10-24T11:30:01.811Z,56.38
2022-10-24T11:32:49.126Z,55.77
2022-10-24T11:35:28.496Z,55.19
2022-10-24T11:38:15.584Z,55.58
2022-10-24T11:40:44.756Z,55.84
2022-10-24T11:43:11.697Z,55.60
2022-10-24T11:45:47.235Z,55.31
2022-10-24T11:48:43.731Z,54.75
2022-10-24T11:51:19.655Z,54.57
2022-10-24T11:53:53.294Z,54.52
2022-10-24T11:56:24.983Z,53.99
2022-10-24T11:58:59.969Z,53.08
2022-10-24T12:01:47.513Z,53.14
2022-10-24T12:04:14.475Z,53.20
2022-10-24T12:06:56.337Z,53.39
2022-10-24T12:09:23.323Z,53.41
2022-10-24T12:11:53.165Z,53.49
2022-10-24T12:14:38.730Z,52.67
2022-10-24T12:17:24.751Z,52.71
2022-10-24T12:19:52.230Z,52.80
2022-10-24T12:22:23.697Z,53.19
2022-10-24T12:25:01.838Z,53.01
2022-10-24T12:27:39.509Z,53.36
2022-10-24T12:30:09.833Z,53.06
2022-10-24T12:32:36.569Z,51.79
2022-10-24T12:35:30.018Z,51.74
2022-10-24T12:37:51.103Z,51.61
2022-10-24T12:40:36.759Z,51.57
2022-10-24T12:43:03.550Z,51.45
2022-10-24T12:45:31.498Z,51.46
2022-10-24T12:47:58.402Z,51.60
2022-10-24T12:50:26.664Z,51.63
2022-10-24T12:52:56.286Z,52.27
2022-10-24T12:55:39.932Z,52.07
2022-10-24T12:58:36.521Z,52.13
2022-10-24T13:01:09.767Z,52.12
2022-10-24T13:03:39.546Z,52.44
2022-10-24T13:06:06.349Z,52.24
2022-10-24T13:08:36.010Z,52.43
2022-10-24T13:11:02.698Z,51.97
2022-10-24T13:13:29.515Z,52.01
2022-10-24T13:16:05.685Z,52.09
2022-10-24T13:18:38.467Z,51.73
2022-10-24T13:21:17.807Z,51.73
2022-10-24T13:23:45.928Z,51.34
2022-10-24T13:26:31.541Z,51.44
2022-10-24T13:28:58.234Z,51.46
2022-10-24T13:31:25.119Z,51.49
2022-10-24T13:33:53.429Z,51.68
2022-10-24T13:36:27.821Z,52.12
2022-10-24T13:38:55.113Z,52.58
2022-10-24T13:41:31.275Z,52.04
2022-10-24T13:44:02.460Z,51.88
2022-10-24T13:49:06.474Z,51.52
2022-10-24T13:51:43.148Z,51.16
2022-10-24T13:54:26.337Z,51.58
2022-10-24T13:56:55.982Z,51.55
2022-10-24T13:59:37.371Z,51.47
2022-10-24T14:02:06.976Z,51.92
2022-10-24T14:04:35.545Z,51.88
2022-10-24T14:07:04.353Z,51.84
2022-10-24T14:09:38.298Z,51.60
2022-10-24T14:12:05.331Z,52.45
2022-10-24T14:14:37.442Z,52.57
2022-10-24T14:17:23.767Z,52.54
2022-10-24T14:19:56.049Z,53.01
2022-10-24T14:22:25.053Z,53.26
2022-10-24T14:24:52.157Z,53.67
2022-10-24T14:27:19.530Z,53.75
2022-10-24T14:29:57.759Z,53.90
2022-10-24T14:32:26.639Z,54.03
2022-10-24T14:34:57.584Z,54.46
2022-10-24T14:37:29.485Z,54.37
2022-10-24T14:39:57.027Z,54.84
2022-10-24T14:42:24.293Z,54.99
2022-10-24T14:44:53.791Z,55.47
2022-10-24T14:47:25.558Z,55.84
2022-10-24T14:49:52.980Z,56.25
2022-10-24T14:52:27.122Z,56.34
2022-10-24T14:54:55.927Z,56.19
2022-10-24T14:57:23.344Z,56.48
2022-10-24T14:59:52.695Z,56.55
2022-10-24T15:02:19.791Z,56.71
2022-10-24T15:04:47.096Z,56.64
2022-10-24T15:07:14.454Z,57.04
2022-10-24T15:09:51.080Z,57.24
2022-10-24T15:12:23.787Z,57.60
2022-10-24T15:14:53.464Z,57.71
2022-10-24T15:17:31.531Z,57.94
2022-10-24T15:20:01.197Z,58.14
2022-10-24T15:22:32.948Z,58.39
2022-10-24T15:25:00.913Z,58.46
2022-10-24T15:27:41.950Z,58.55
2022-10-24T15:30:20.159Z,58.52
2022-10-24T15:32:48.030Z,58.93
2022-10-24T15:35:15.904Z,59.42
2022-10-24T15:38:02.921Z,59.53
2022-10-24T15:40:32.994Z,59.96
2022-10-24T15:43:00.045Z,60.61
2022-10-24T15:45:27.586Z,60.58
2022-10-24T15:47:54.606Z,60.83
2022-10-24T15:52:56.814Z,61.17
2022-10-24T15:55:24.941Z,61.34
2022-10-24T15:57:52.189Z,61.66
2022-10-24T16:00:21.718Z,62.26
2022-10-24T16:02:49.924Z,62.06
2022-10-24T16:05:21.743Z,62.22
2022-10-24T16:07:48.987Z,62.42
2022-10-24T16:10:16.902Z,62.72
2022-10-24T16:12:43.701Z,62.83
2022-10-24T16:15:18.335Z,63.16
2022-10-24T16:17:45.668Z,63.54
2022-10-24T16:20:12.801Z,63.45
2022-10-24T16:22:40.906Z,63.84
2022-10-24T16:25:08.876Z,63.64
2022-10-24T16:27:35.596Z,63.85
2022-10-24T16:30:02.579Z,63.83
2022-10-24T16:32:29.592Z,63.92
2022-10-24T16:34:57.574Z,64.05
2022-10-24T16:37:24.394Z,64.20
2022-10-24T16:39:51.405Z,64.15
2022-10-24T16:42:20.153Z,64.38
2022-10-24T16:44:47.215Z,64.30
2022-10-24T16:47:14.441Z,64.69
2022-10-24T16:49:41.371Z,64.85
2022-10-24T16:52:08.410Z,65.32
2022-10-24T16:54:35.815Z,65.30
2022-10-24T16:57:03.647Z,65.52
2022-10-24T16:59:30.527Z,65.83
2022-10-24T17:01:57.868Z,65.76
2022-10-24T17:04:24.702Z,65.95
2022-10-24T17:06:51.633Z,66.22
2022-10-24T17:09:18.455Z,66.18
2022-10-24T17:11:46.406Z,66.30
2022-10-24T17:14:14.456Z,66.79
2022-10-24T17:16:42.311Z,66.66
2022-10-24T17:19:16.133Z,66.64
2022-10-24T17:21:47.097Z,66.76
2022-10-24T17:24:14.568Z,66.87
2022-10-24T17:26:42.074Z,66.63
2022-10-24T17:29:12.217Z,66.91
2022-10-24T17:31:39.087Z,67.06
2022-10-24T17:34:05.991Z,66.81
2022-10-24T17:36:34.880Z,66.75
2022-10-24T17:39:09.287Z,67.18
2022-10-24T17:41:39.290Z,67.10
2022-10-24T17:44:06.296Z,67.51
2022-10-24T17:46:33.255Z,67.84
2022-10-24T17:48:59.976Z,67.93
2022-10-24T17:51:27.260Z,67.86
2022-10-24T17:53:54.020Z,67.97
2022-10-24T17:56:23.325Z,68.24
2022-10-24T17:58:52.705Z,68.23
2022-10-24T18:01:20.651Z,68.19
2022-10-24T18:03:47.496Z,68.28
2022-10-24T18:06:14.702Z,68.40
2022-10-24T18:08:41.636Z,68.18
2022-10-24T18:11:14.208Z,68.38
2022-10-24T18:13:41.437Z,68.41
2022-10-24T18:16:09.054Z,68.29
2022-10-24T18:18:36.069Z,68.44
2022-10-24T18:21:10.783Z,68.95
2022-10-24T18:23:38.000Z,68.82
2022-10-24T18:26:09.089Z,68.84
2022-10-24T18:28:40.020Z,68.78
2022-10-24T18:31:08.515Z,69.00
2022-10-24T18:33:35.247Z,69.23
2022-10-24T18:36:06.792Z,69.42
2022-10-24T18:38:34.803Z,69.15
2022-10-24T18:41:01.759Z,68.89
2022-10-24T18:43:28.846Z,69.29
2022-10-24T18:45:55.741Z,69.53
2022-10-24T18:48:22.690Z,69.52
2022-10-24T18:50:49.763Z,69.57
2022-10-24T18:53:27.247Z,69.61
2022-10-24T18:55:54.262Z,69.67
2022-10-24T18:58:21.084Z,70.01
2022-10-24T19:00:48.083Z,69.66
2022-10-24T19:03:15.000Z,69.19
2022-10-24T19:05:43.622Z,69.70
2022-10-24T19:08:14.408Z,69.73
2022-10-24T19:10:41.618Z,69.63
2022-10-24T19:13:08.469Z,69.87
2022-10-24T19:15:39.902Z,69.86
2022-10-24T19:18:07.513Z,70.50
2022-10-24T19:20:35.649Z,69.82
2022-10-24T19:23:05.267Z,69.88
2022-10-24T19:25:33.007Z,70.06
2022-10-24T19:27:59.835Z,70.12
2022-10-24T19:30:26.592Z,70.27
2022-10-24T19:32:53.551Z,70.56
2022-10-24T19:35:22.376Z,70.58
2022-10-24T19:37:49.453Z,70.70
2022-10-24T19:40:16.616Z,70.59
2022-10-24T19:42:43.374Z,70.69
2022-10-24T19:45:10.283Z,70.69
2022-10-24T19:47:37.122Z,70.44
2022-10-24T19:50:03.982Z,71.14
2022-10-24T19:52:30.827Z,71.02
2022-10-24T19:54:57.706Z,71.33
2022-10-24T19:57:24.455Z,71.12
2022-10-24T19:59:51.179Z,70.86
2022-10-24T20:02:18.094Z,71.38
2022-10-24T20:04:48.250Z,71.67
2022-10-24T20:07:17.469Z,71.45
2022-10-24T20:09:44.744Z,71.61
2022-10-24T20:12:11.682Z,71.83
2022-10-24T20:14:38.402Z,71.90
2022-10-24T20:17:05.468Z,71.87
2022-10-24T20:19:32.184Z,71.51
2022-10-24T20:22:01.718Z,71.99
2022-10-24T20:24:30.690Z,72.33
2022-10-24T20:26:57.463Z,72.31
2022-10-24T20:29:24.314Z,72.11
2022-10-24T20:31:51.093Z,72.50
2022-10-24T20:34:17.931Z,72.56
2022-10-24T20:36:47.242Z,72.77
2022-10-24T20:39:16.130Z,72.24
2022-10-24T20:41:43.263Z,71.98
2022-10-24T20:44:11.262Z,72.56
2022-10-24T20:46:37.998Z,72.45
2022-10-24T20:49:05.242Z,72.64
2022-10-24T20:51:31.990Z,72.53
2022-10-24T20:53:59.197Z,72.56
2022-10-24T20:56:26.895Z,72.81
2022-10-24T20:58:55.590Z,72.90
2022-10-24T21:01:23.921Z,73.03
2022-10-24T21:03:51.149Z,72.81
2022-10-24T21:06:19.275Z,72.93
2022-10-24T21:08:48.517Z,73.18
2022-10-24T21:11:16.360Z,73.02
2022-10-24T21:13:43.436Z,72.75
2022-10-24T21:16:10.475Z,73.25
2022-10-24T21:18:37.774Z,72.56
2022-10-24T21:21:12.079Z,72.25
2022-10-24T21:23:38.968Z,73.09
2022-10-24T21:26:07.207Z,73.05
2022-10-24T21:28:34.281Z,72.72
2022-10-24T21:31:11.428Z,73.13
2022-10-24T21:33:38.413Z,73.33
2022-10-24T21:36:09.745Z,73.55
2022-10-24T21:38:36.706Z,73.79
2022-10-24T21:41:04.615Z,73.90
2022-10-24T21:43:35.808Z,73.82
2022-10-24T21:46:07.152Z,74.18
2022-10-24T21:48:34.518Z,74.02
2022-10-24T21:51:11.643Z,74.08
2022-10-24T21:53:40.202Z,74.09
2022-10-24T21:56:11.280Z,74.10
2022-10-24T21:58:38.376Z,74.10
2022-10-24T22:01:09.222Z,74.19
2022-10-24T22:03:36.051Z,74.66
2022-10-24T22:06:02.789Z,74.70
2022-10-24T22:08:29.603Z,74.78
2022-10-24T22:11:01.118Z,74.90
2022-10-24T22:13:28.181Z,75.05
2022-10-24T22:15:55.457Z,75.08
2022-10-24T22:18:23.342Z,75.02
2022-10-24T22:20:50.711Z,74.85
2022-10-24T22:23:17.410Z,74.91
2022-10-24T22:25:44.355Z,75.15
2022-10-24T22:28:11.401Z,75.24
2022-10-24T22:30:38.782Z,75.02
2022-10-24T22:33:05.791Z,75.15
2022-10-24T22:35:32.832Z,75.23
2022-10-24T22:37:59.719Z,75.54
2022-10-24T22:40:29.005Z,75.50
2022-10-24T22:42:56.324Z,75.83
2022-10-24T22:45:23.805Z,76.33
2022-10-24T22:47:51.831Z,76.44
2022-10-24T22:50:39.065Z,76.24
2022-10-24T22:53:11.231Z,76.48
2022-10-24T22:55:45.544Z,76.66
2022-10-24T22:58:12.399Z,76.29
2022-10-24T23:00:39.471Z,76.12
2022-10-24T23:03:25.042Z,76.45
2022-10-24T23:05:59.008Z,76.75
2022-10-24T23:08:28.743Z,76.81
2022-10-24T23:10:55.615Z,77.00
2022-10-24T23:13:22.643Z,76.94
2022-10-24T23:15:49.901Z,77.12
2022-10-24T23:18:16.930Z,77.34
2022-10-24T23:20:44.428Z,77.07
2022-10-24T23:23:28.757Z,77.41
2022-10-24T23:26:10.402Z,77.60
2022-10-24T23:28:45.163Z,78.04
2022-10-24T23:31:12.055Z,77.69
2022-10-24T23:33:38.975Z,78.00
2022-10-24T23:36:05.879Z,77.61
2022-10-24T23:38:32.824Z,77.98
2022-10-24T23:40:59.773Z,77.83
2022-10-24T23:43:26.530Z,77.87
2022-10-24T23:45:58.106Z,78.16
2022-10-24T23:48:27.926Z,78.25
2022-10-24T23:50:54.616Z,78.55
2022-10-24T23:53:27.218Z,78.48
2022-10-24T23:55:54.247Z,78.31
2022-10-24T23:58:21.097Z,78.74
